createdAt,value
2017-08-20T00:00:03.376Z,16.13
2017-08-20T00:01:03.387Z,16.13
2017-08-20T00:02:03.399Z,16.13
2017-08-20T00:03:03.416Z,16.13
2017-08-20T00:04:03.427Z,16.06
2017-08-20T00:05:03.441Z,16.06
2017-08-20T00:06:03.457Z,16.06
2017-08-20T00:07:03.469Z,16.06
2017-08-20T00:08:03.489Z,16.06
2017-08-20T00:09:03.497Z,16.06
2017-08-20T00:10:03.510Z,16.06
2017-08-20T00:11:03.525Z,16.06
2017-08-20T00:12:03.535Z,16.06
2017-08-20T00:13:03.550Z,16.06
2017-08-20T00:14:03.564Z,16.06
2017-08-20T00:15:03.579Z,16.06
2017-08-20T00:16:03.589Z,16.06
2017-08-20T00:17:03.604Z,16.06
2017-08-20T00:18:03.618Z,16.06
2017-08-20T00:19:03.631Z,16.06
2017-08-20T00:20:03.644Z,16.06
2017-08-20T00:21:03.659Z,16.06
2017-08-20T00:22:03.673Z,16.06
2017-08-20T00:23:03.684Z,16.00
2017-08-20T00:24:03.699Z,16.00
2017-08-20T00:25:03.713Z,16.00
2017-08-20T00:26:03.727Z,16.00
2017-08-20T00:27:03.744Z,16.00
2017-08-20T00:28:03.753Z,16.00
2017-08-20T00:29:03.768Z,15.94
2017-08-20T00:30:03.779Z,15.94
2017-08-20T00:31:03.794Z,15.94
2017-08-20T00:32:03.807Z,15.88
2017-08-20T00:33:03.819Z,15.88
2017-08-20T00:34:03.836Z,15.88
2017-08-20T00:35:03.849Z,15.88
2017-08-20T00:36:03.862Z,15.81
2017-08-20T00:37:03.875Z,15.81
2017-08-20T00:38:03.888Z,15.81
2017-08-20T00:39:03.901Z,15.81
2017-08-20T00:40:03.916Z,15.81
2017-08-20T00:41:03.929Z,15.81
2017-08-20T00:42:03.943Z,15.81
2017-08-20T00:43:03.954Z,15.81
2017-08-20T00:44:03.966Z,15.81
2017-08-20T00:45:03.981Z,15.81
2017-08-20T00:46:03.994Z,15.75
2017-08-20T00:47:04.007Z,15.75
2017-08-20T00:48:04.021Z,15.75
2017-08-20T00:49:04.034Z,15.75
2017-08-20T00:50:04.049Z,15.75
2017-08-20T00:51:04.061Z,15.75
2017-08-20T00:52:04.074Z,15.69
2017-08-20T00:53:04.088Z,15.69
2017-08-20T00:54:04.112Z,15.69
2017-08-20T00:55:04.119Z,15.69
2017-08-20T00:56:04.126Z,15.63
2017-08-20T00:57:04.140Z,15.63
2017-08-20T00:58:04.154Z,15.69
2017-08-20T00:59:04.168Z,15.63
2017-08-20T01:00:04.180Z,15.69
2017-08-20T01:01:04.194Z,15.69
2017-08-20T01:02:04.205Z,15.69
2017-08-20T01:03:04.221Z,15.75
2017-08-20T01:04:04.232Z,15.69
2017-08-20T01:05:04.248Z,15.75
2017-08-20T01:06:04.259Z,15.75
2017-08-20T01:07:04.274Z,15.75
2017-08-20T01:08:04.286Z,15.75
2017-08-20T01:09:04.300Z,15.75
2017-08-20T01:10:04.314Z,15.75
2017-08-20T01:11:04.332Z,15.75
2017-08-20T01:12:04.339Z,15.81
2017-08-20T01:13:04.353Z,15.81
2017-08-20T01:14:04.366Z,15.81
2017-08-20T01:15:04.380Z,15.81
2017-08-20T01:16:04.392Z,15.81
2017-08-20T01:17:04.408Z,15.88
2017-08-20T01:18:04.424Z,15.88
2017-08-20T01:19:04.432Z,15.88
2017-08-20T01:20:04.444Z,15.88
2017-08-20T01:21:04.460Z,15.88
2017-08-20T01:22:04.475Z,15.88
2017-08-20T01:23:04.482Z,15.88
2017-08-20T01:24:04.502Z,15.88
2017-08-20T01:25:04.512Z,15.88
2017-08-20T01:26:04.527Z,15.88
2017-08-20T01:27:04.539Z,15.88
2017-08-20T01:28:04.554Z,15.88
2017-08-20T01:29:04.567Z,15.88
2017-08-20T01:30:04.582Z,15.88
2017-08-20T01:31:04.593Z,15.88
2017-08-20T01:32:04.605Z,15.88
2017-08-20T01:33:04.619Z,15.88
2017-08-20T01:34:04.634Z,15.88
2017-08-20T01:35:04.645Z,15.88
2017-08-20T01:36:04.657Z,15.88
2017-08-20T01:37:04.673Z,15.81
2017-08-20T01:38:04.683Z,15.81
2017-08-20T01:39:04.694Z,15.81
2017-08-20T01:40:04.710Z,15.81
2017-08-20T01:41:04.727Z,15.81
2017-08-20T01:42:04.737Z,15.81
2017-08-20T01:43:04.752Z,15.75
2017-08-20T01:44:04.762Z,15.75
2017-08-20T01:45:04.775Z,15.75
2017-08-20T01:46:04.791Z,15.75
2017-08-20T01:47:04.809Z,15.75
2017-08-20T01:48:04.816Z,15.75
2017-08-20T01:49:04.832Z,15.75
2017-08-20T01:50:04.845Z,15.75
2017-08-20T01:51:04.856Z,15.75
2017-08-20T01:52:04.870Z,15.75
2017-08-20T01:53:04.884Z,15.75
2017-08-20T01:54:04.898Z,15.75
2017-08-20T01:55:04.911Z,15.75
2017-08-20T01:56:04.922Z,15.81
2017-08-20T01:57:04.938Z,15.81
2017-08-20T01:58:04.949Z,15.88
2017-08-20T01:59:04.963Z,15.88
2017-08-20T02:00:04.975Z,15.94
2017-08-20T02:01:04.991Z,15.94
2017-08-20T02:02:05.008Z,15.94
2017-08-20T02:03:05.015Z,16.00
2017-08-20T02:04:05.029Z,16.00
2017-08-20T02:05:05.044Z,16.00
2017-08-20T02:06:05.056Z,16.06
2017-08-20T02:07:05.071Z,16.06
2017-08-20T02:08:05.083Z,16.06
2017-08-20T02:09:05.098Z,16.13
2017-08-20T02:10:05.109Z,16.13
2017-08-20T02:11:05.126Z,16.13
2017-08-20T02:12:05.138Z,16.13
2017-08-20T02:13:05.151Z,16.19
2017-08-20T02:14:05.165Z,16.19
2017-08-20T02:15:05.175Z,16.19
2017-08-20T02:16:05.193Z,16.25
2017-08-20T02:17:05.205Z,16.25
2017-08-20T02:18:05.218Z,16.25
2017-08-20T02:19:05.231Z,16.25
2017-08-20T02:20:05.242Z,16.25
2017-08-20T02:21:05.256Z,16.25
2017-08-20T02:22:05.270Z,16.25
2017-08-20T02:23:05.283Z,16.25
2017-08-20T02:24:05.297Z,16.25
2017-08-20T02:25:05.316Z,16.25
2017-08-20T02:26:05.326Z,16.19
2017-08-20T02:27:05.341Z,16.13
2017-08-20T02:28:05.351Z,16.13
2017-08-20T02:29:05.365Z,16.13
2017-08-20T02:30:05.379Z,16.06
2017-08-20T02:31:05.396Z,16.06
2017-08-20T02:32:05.404Z,16.06
2017-08-20T02:33:05.423Z,16.06
2017-08-20T02:34:05.440Z,16.06
2017-08-20T02:35:05.446Z,16.06
2017-08-20T02:36:05.460Z,16.06
2017-08-20T02:37:05.474Z,16.06
2017-08-20T02:38:05.488Z,16.06
2017-08-20T02:39:05.501Z,16.13
2017-08-20T02:40:05.516Z,16.13
2017-08-20T02:41:05.529Z,16.13
2017-08-20T02:42:05.542Z,16.19
2017-08-20T02:43:05.555Z,16.19
2017-08-20T02:44:05.566Z,16.19
2017-08-20T02:45:05.582Z,16.19
2017-08-20T02:46:05.599Z,16.19
2017-08-20T02:47:05.612Z,16.19
2017-08-20T02:48:05.621Z,16.19
2017-08-20T02:49:05.638Z,16.19
2017-08-20T02:50:05.649Z,16.19
2017-08-20T02:51:05.663Z,16.25
2017-08-20T02:52:05.677Z,16.25
2017-08-20T02:53:05.692Z,16.25
2017-08-20T02:54:05.705Z,16.31
2017-08-20T02:55:05.721Z,16.31
2017-08-20T02:56:05.731Z,16.31
2017-08-20T02:57:05.746Z,16.31
2017-08-20T02:58:05.759Z,16.31
2017-08-20T02:59:05.771Z,16.25
2017-08-20T03:00:05.785Z,16.25
2017-08-20T03:01:05.800Z,16.19
2017-08-20T03:02:05.817Z,16.19
2017-08-20T03:03:05.827Z,16.13
2017-08-20T03:04:05.839Z,16.06
2017-08-20T03:05:05.855Z,16.00
2017-08-20T03:06:05.867Z,15.94
2017-08-20T03:07:05.882Z,15.94
2017-08-20T03:08:05.895Z,15.88
2017-08-20T03:09:05.911Z,15.81
2017-08-20T03:10:05.927Z,15.75
2017-08-20T03:11:05.937Z,15.69
2017-08-20T03:12:05.948Z,15.69
2017-08-20T03:13:05.967Z,15.63
2017-08-20T03:14:05.975Z,15.63
2017-08-20T03:15:05.987Z,15.56
2017-08-20T03:16:06.001Z,15.50
2017-08-20T03:17:06.016Z,15.50
2017-08-20T03:18:06.027Z,15.56
2017-08-20T03:19:06.041Z,15.56
2017-08-20T03:20:06.053Z,15.63
2017-08-20T03:21:06.069Z,15.63
2017-08-20T03:22:06.082Z,15.69
2017-08-20T03:23:06.094Z,15.69
2017-08-20T03:24:06.106Z,15.69
2017-08-20T03:25:06.122Z,15.75
2017-08-20T03:26:06.138Z,15.75
2017-08-20T03:27:06.147Z,15.75
2017-08-20T03:28:06.160Z,15.81
2017-08-20T03:29:06.175Z,15.81
2017-08-20T03:30:06.188Z,15.81
2017-08-20T03:31:06.209Z,15.88
2017-08-20T03:32:06.212Z,15.88
2017-08-20T03:33:06.227Z,15.94
2017-08-20T03:34:06.240Z,15.94
2017-08-20T03:35:06.256Z,16.00
2017-08-20T03:36:06.266Z,16.06
2017-08-20T03:37:06.283Z,16.06
2017-08-20T03:38:06.294Z,16.06
2017-08-20T03:39:06.308Z,16.06
2017-08-20T03:40:06.322Z,16.13
2017-08-20T03:41:06.335Z,16.13
2017-08-20T03:42:06.348Z,16.13
2017-08-20T03:43:06.362Z,16.13
2017-08-20T03:44:06.376Z,16.13
2017-08-20T03:45:06.389Z,16.13
2017-08-20T03:46:06.402Z,16.06
2017-08-20T03:47:06.415Z,16.06
2017-08-20T03:48:06.428Z,16.00
2017-08-20T03:49:06.443Z,16.00
2017-08-20T03:50:06.456Z,15.94
2017-08-20T03:51:06.470Z,15.94
2017-08-20T03:52:06.484Z,15.88
2017-08-20T03:53:06.498Z,15.81
2017-08-20T03:54:06.509Z,15.81
2017-08-20T03:55:06.526Z,15.75
2017-08-20T03:56:06.537Z,15.69
2017-08-20T03:57:06.553Z,15.63
2017-08-20T03:58:06.566Z,15.63
2017-08-20T03:59:06.578Z,15.56
2017-08-20T04:00:06.592Z,15.56
2017-08-20T04:01:06.608Z,15.50
2017-08-20T04:02:06.618Z,15.50
2017-08-20T04:03:06.632Z,15.50
2017-08-20T04:04:06.645Z,15.50
2017-08-20T04:05:06.678Z,15.50
2017-08-20T04:06:06.672Z,15.50
2017-08-20T04:07:06.684Z,15.50
2017-08-20T04:08:06.697Z,15.56
2017-08-20T04:09:06.713Z,15.56
2017-08-20T04:10:06.728Z,15.63
2017-08-20T04:11:06.739Z,15.63
2017-08-20T04:12:06.752Z,15.69
2017-08-20T04:13:06.767Z,15.75
2017-08-20T04:14:06.784Z,15.81
2017-08-20T04:15:06.797Z,15.81
2017-08-20T04:16:06.806Z,15.88
2017-08-20T04:17:06.821Z,15.94
2017-08-20T04:18:06.834Z,15.94
2017-08-20T04:19:06.849Z,15.94
2017-08-20T04:20:06.860Z,16.00
2017-08-20T04:21:06.880Z,16.00
2017-08-20T04:22:06.888Z,16.06
2017-08-20T04:23:06.902Z,16.06
2017-08-20T04:24:06.915Z,16.06
2017-08-20T04:25:06.932Z,16.06
2017-08-20T04:26:06.944Z,16.06
2017-08-20T04:27:06.956Z,16.06
2017-08-20T04:28:06.972Z,16.06
2017-08-20T04:29:06.985Z,16.06
2017-08-20T04:30:07.005Z,16.06
2017-08-20T04:31:07.012Z,16.06
2017-08-20T04:32:07.026Z,16.06
2017-08-20T04:33:07.043Z,16.06
2017-08-20T04:34:07.053Z,16.06
2017-08-20T04:35:07.070Z,16.06
2017-08-20T04:36:07.080Z,16.06
2017-08-20T04:37:07.095Z,16.13
2017-08-20T04:38:07.110Z,16.13
2017-08-20T04:39:07.123Z,16.13
2017-08-20T04:40:07.135Z,16.06
2017-08-20T04:41:07.152Z,16.00
2017-08-20T04:42:07.166Z,16.00
2017-08-20T04:43:07.178Z,16.00
2017-08-20T04:44:07.193Z,16.00
2017-08-20T04:45:07.205Z,16.00
2017-08-20T04:46:07.220Z,16.00
2017-08-20T04:47:07.235Z,16.00
2017-08-20T04:48:07.249Z,16.00
2017-08-20T04:49:07.262Z,16.00
2017-08-20T04:50:07.275Z,16.06
2017-08-20T04:51:07.291Z,16.06
2017-08-20T04:52:07.301Z,16.13
2017-08-20T04:53:07.316Z,16.13
2017-08-20T04:54:07.331Z,16.19
2017-08-20T04:55:07.347Z,16.19
2017-08-20T04:56:07.362Z,16.19
2017-08-20T04:57:07.376Z,16.19
2017-08-20T04:58:07.396Z,16.19
2017-08-20T04:59:07.403Z,16.25
2017-08-20T05:00:07.415Z,16.25
2017-08-20T05:01:07.431Z,16.25
2017-08-20T05:02:07.441Z,16.25
2017-08-20T05:03:07.463Z,16.19
2017-08-20T05:04:07.472Z,16.19
2017-08-20T05:05:07.486Z,16.19
2017-08-20T05:06:07.501Z,16.19
2017-08-20T05:07:07.514Z,16.13
2017-08-20T05:08:07.529Z,16.13
2017-08-20T05:09:07.544Z,16.13
2017-08-20T05:10:07.557Z,16.06
2017-08-20T05:11:07.570Z,16.06
2017-08-20T05:12:07.586Z,16.06
2017-08-20T05:13:07.599Z,16.06
2017-08-20T05:14:07.612Z,16.06
2017-08-20T05:15:07.627Z,16.06
2017-08-20T05:16:07.642Z,16.13
2017-08-20T05:17:07.656Z,16.06
2017-08-20T05:18:07.670Z,16.06
2017-08-20T05:19:07.684Z,16.13
2017-08-20T05:20:07.697Z,16.13
2017-08-20T05:21:07.715Z,16.13
2017-08-20T05:22:07.726Z,16.13
2017-08-20T05:23:07.743Z,16.13
2017-08-20T05:24:07.754Z,16.13
2017-08-20T05:25:07.771Z,16.13
2017-08-20T05:26:07.783Z,16.19
2017-08-20T05:27:07.798Z,16.19
2017-08-20T05:28:07.815Z,16.19
2017-08-20T05:29:07.828Z,16.19
2017-08-20T05:30:07.841Z,16.19
2017-08-20T05:31:07.856Z,16.25
2017-08-20T05:32:07.869Z,16.25
2017-08-20T05:33:07.885Z,16.25
2017-08-20T05:34:07.899Z,16.25
2017-08-20T05:35:07.917Z,16.25
2017-08-20T05:36:07.930Z,16.25
2017-08-20T05:37:07.944Z,16.31
2017-08-20T05:38:07.957Z,16.31
2017-08-20T05:39:07.972Z,16.31
2017-08-20T05:40:07.986Z,16.31
2017-08-20T05:41:08.001Z,16.38
2017-08-20T05:42:08.015Z,16.38
2017-08-20T05:43:08.031Z,16.38
2017-08-20T05:44:08.044Z,16.38
2017-08-20T05:45:08.062Z,16.31
2017-08-20T05:46:08.076Z,16.31
2017-08-20T05:47:08.088Z,16.38
2017-08-20T05:48:08.102Z,16.38
2017-08-20T05:49:08.120Z,16.38
2017-08-20T05:50:08.138Z,16.38
2017-08-20T05:51:08.148Z,16.38
2017-08-20T05:52:08.161Z,16.44
2017-08-20T05:53:08.178Z,16.44
2017-08-20T05:54:08.190Z,16.50
2017-08-20T05:55:08.212Z,16.50
2017-08-20T05:56:08.221Z,16.50
2017-08-20T05:57:08.235Z,16.56
2017-08-20T05:58:08.380Z,16.56
2017-08-20T05:59:08.266Z,16.63
2017-08-20T06:00:08.279Z,16.69
2017-08-20T06:01:08.296Z,16.69
2017-08-20T06:02:08.310Z,16.75
2017-08-20T06:03:08.326Z,16.81
2017-08-20T06:04:08.340Z,16.81
2017-08-20T06:05:08.357Z,16.88
2017-08-20T06:06:08.369Z,17.00
2017-08-20T06:07:08.385Z,17.06
2017-08-20T06:08:08.400Z,17.06
2017-08-20T06:09:08.417Z,17.13
2017-08-20T06:10:08.431Z,17.13
2017-08-20T06:11:08.443Z,17.19
2017-08-20T06:12:08.464Z,17.31
2017-08-20T06:13:08.481Z,17.44
2017-08-20T06:14:08.496Z,17.56
2017-08-20T06:15:08.513Z,17.69
2017-08-20T06:16:08.527Z,17.81
2017-08-20T06:17:08.548Z,17.94
2017-08-20T06:18:08.561Z,18.00
2017-08-20T06:19:08.590Z,18.06
2017-08-20T06:20:08.595Z,18.19
2017-08-20T06:21:08.616Z,18.25
2017-08-20T06:22:08.632Z,18.31
2017-08-20T06:23:08.647Z,18.19
2017-08-20T06:24:08.665Z,18.13
2017-08-20T06:25:08.685Z,18.19
2017-08-20T06:26:08.700Z,18.25
2017-08-20T06:27:08.718Z,18.31
2017-08-20T06:28:08.735Z,18.38
2017-08-20T06:29:08.755Z,18.44
2017-08-20T06:30:08.773Z,18.44
2017-08-20T06:31:08.790Z,18.50
2017-08-20T06:32:08.810Z,18.56
2017-08-20T06:33:08.825Z,18.63
2017-08-20T06:34:08.845Z,18.63
2017-08-20T06:35:08.865Z,18.63
2017-08-20T06:36:08.882Z,18.69
2017-08-20T06:37:08.902Z,18.69
2017-08-20T06:38:08.919Z,18.75
2017-08-20T06:39:08.938Z,18.81
2017-08-20T06:40:08.956Z,18.88
2017-08-20T06:41:08.971Z,18.94
2017-08-20T06:42:08.993Z,19.06
2017-08-20T06:43:09.011Z,19.13
2017-08-20T06:44:09.032Z,19.25
2017-08-20T06:45:09.051Z,19.25
2017-08-20T06:46:09.072Z,19.31
2017-08-20T06:47:09.089Z,19.25
2017-08-20T06:48:09.106Z,19.19
2017-08-20T06:49:09.127Z,18.94
2017-08-20T06:50:09.144Z,18.81
2017-08-20T06:51:09.163Z,18.88
2017-08-20T06:52:09.183Z,18.88
2017-08-20T06:53:09.201Z,18.94
2017-08-20T06:54:09.220Z,19.06
2017-08-20T06:55:09.242Z,19.13
2017-08-20T06:56:09.258Z,19.19
2017-08-20T06:57:09.278Z,19.13
2017-08-20T06:58:09.297Z,19.06
2017-08-20T06:59:09.316Z,19.13
2017-08-20T07:00:09.335Z,19.19
2017-08-20T07:01:09.357Z,19.19
2017-08-20T07:02:09.374Z,19.25
2017-08-20T07:03:09.392Z,19.19
2017-08-20T07:04:09.410Z,19.19
2017-08-20T07:05:09.440Z,19.25
2017-08-20T07:06:09.446Z,19.25
2017-08-20T07:07:09.468Z,19.38
2017-08-20T07:08:09.488Z,19.56
2017-08-20T07:09:09.505Z,19.81
2017-08-20T07:10:09.525Z,20.00
2017-08-20T07:11:09.546Z,20.13
2017-08-20T07:12:09.565Z,20.19
2017-08-20T07:13:09.583Z,20.25
2017-08-20T07:14:09.605Z,20.31
2017-08-20T07:15:09.621Z,20.44
2017-08-20T07:16:09.641Z,20.63
2017-08-20T07:17:09.664Z,20.75
2017-08-20T07:18:09.679Z,20.94
2017-08-20T07:19:09.703Z,21.06
2017-08-20T07:20:09.718Z,21.13
2017-08-20T07:21:09.743Z,21.19
2017-08-20T07:22:09.759Z,21.13
2017-08-20T07:23:09.778Z,21.06
2017-08-20T07:24:09.804Z,20.88
2017-08-20T07:25:09.820Z,20.69
2017-08-20T07:26:09.845Z,20.75
2017-08-20T07:27:09.860Z,20.88
2017-08-20T07:28:09.881Z,20.88
2017-08-20T07:29:09.901Z,20.88
2017-08-20T07:30:09.926Z,20.94
2017-08-20T07:31:09.941Z,21.00
2017-08-20T07:32:09.958Z,21.06
2017-08-20T07:33:09.980Z,21.25
2017-08-20T07:34:09.998Z,21.44
2017-08-20T07:35:10.022Z,21.63
2017-08-20T07:36:10.038Z,21.69
2017-08-20T07:37:10.063Z,21.75
2017-08-20T07:38:10.080Z,21.75
2017-08-20T07:39:10.101Z,21.88
2017-08-20T07:40:10.121Z,21.94
2017-08-20T07:41:10.144Z,21.94
2017-08-20T07:42:10.162Z,21.88
2017-08-20T07:43:10.183Z,21.94
2017-08-20T07:44:10.204Z,22.00
2017-08-20T07:45:10.228Z,22.13
2017-08-20T07:46:10.244Z,22.25
2017-08-20T07:47:10.264Z,22.44
2017-08-20T07:48:10.286Z,22.56
2017-08-20T07:49:10.306Z,22.69
2017-08-20T07:50:10.326Z,22.75
2017-08-20T07:51:10.347Z,22.81
2017-08-20T07:52:10.367Z,22.94
2017-08-20T07:53:10.390Z,23.06
2017-08-20T07:54:10.410Z,23.19
2017-08-20T07:55:10.429Z,23.38
2017-08-20T07:56:10.451Z,23.31
2017-08-20T07:57:10.473Z,23.31
2017-08-20T07:58:10.493Z,23.25
2017-08-20T07:59:10.514Z,23.25
2017-08-20T08:00:10.536Z,23.31
2017-08-20T08:01:10.556Z,23.31
2017-08-20T08:02:10.578Z,23.38
2017-08-20T08:03:10.601Z,23.44
2017-08-20T08:04:10.619Z,23.50
2017-08-20T08:05:10.639Z,23.63
2017-08-20T08:06:10.659Z,23.69
2017-08-20T08:07:10.685Z,23.75
2017-08-20T08:08:10.700Z,23.75
2017-08-20T08:09:10.720Z,23.75
2017-08-20T08:10:10.744Z,23.81
2017-08-20T08:11:10.762Z,23.88
2017-08-20T08:12:10.781Z,24.00
2017-08-20T08:13:10.807Z,24.13
2017-08-20T08:14:10.824Z,24.19
2017-08-20T08:15:10.842Z,24.38
2017-08-20T08:16:10.865Z,24.31
2017-08-20T08:17:10.885Z,24.31
2017-08-20T08:18:10.905Z,24.50
2017-08-20T08:19:10.929Z,24.63
2017-08-20T08:20:10.947Z,24.81
2017-08-20T08:21:10.967Z,25.00
2017-08-20T08:22:10.986Z,25.19
2017-08-20T08:23:11.006Z,25.31
2017-08-20T08:24:11.026Z,25.38
2017-08-20T08:25:11.048Z,25.31
2017-08-20T08:26:11.068Z,25.13
2017-08-20T08:27:11.093Z,25.13
2017-08-20T08:28:11.107Z,25.25
2017-08-20T08:29:11.129Z,25.38
2017-08-20T08:30:11.147Z,25.50
2017-08-20T08:31:11.171Z,25.69
2017-08-20T08:32:11.188Z,25.69
2017-08-20T08:33:11.208Z,25.75
2017-08-20T08:34:11.225Z,25.81
2017-08-20T08:35:11.247Z,25.94
2017-08-20T08:36:11.265Z,26.06
2017-08-20T08:37:11.289Z,26.19
2017-08-20T08:38:11.304Z,26.19
2017-08-20T08:39:11.324Z,26.19
2017-08-20T08:40:11.342Z,26.25
2017-08-20T08:41:11.364Z,26.31
2017-08-20T08:42:11.381Z,26.38
2017-08-20T08:43:11.401Z,26.50
2017-08-20T08:44:11.419Z,26.56
2017-08-20T08:45:11.442Z,26.56
2017-08-20T08:46:11.457Z,26.50
2017-08-20T08:47:11.477Z,26.50
2017-08-20T08:48:11.495Z,26.50
2017-08-20T08:49:11.515Z,26.50
2017-08-20T08:50:11.532Z,26.56
2017-08-20T08:51:11.557Z,26.75
2017-08-20T08:52:11.569Z,27.00
2017-08-20T08:53:11.588Z,27.19
2017-08-20T08:54:11.631Z,27.44
2017-08-20T08:55:11.624Z,27.56
2017-08-20T08:56:11.643Z,27.69
2017-08-20T08:57:11.661Z,27.75
2017-08-20T08:58:11.678Z,27.88
2017-08-20T08:59:11.698Z,27.88
2017-08-20T09:00:11.718Z,27.88
2017-08-20T09:01:11.734Z,27.94
2017-08-20T09:02:11.753Z,28.00
2017-08-20T09:03:11.771Z,28.13
2017-08-20T09:04:11.788Z,28.06
2017-08-20T09:05:11.807Z,27.69
2017-08-20T09:06:11.822Z,27.19
2017-08-20T09:07:11.840Z,26.94
2017-08-20T09:08:11.859Z,26.69
2017-08-20T09:09:11.876Z,26.63
2017-08-20T09:10:11.895Z,26.69
2017-08-20T09:11:11.913Z,26.75
2017-08-20T09:12:11.929Z,26.88
2017-08-20T09:13:11.949Z,27.00
2017-08-20T09:14:11.965Z,27.19
2017-08-20T09:15:11.982Z,27.38
2017-08-20T09:16:12.000Z,27.63
2017-08-20T09:17:12.017Z,27.81
2017-08-20T09:18:12.034Z,28.06
2017-08-20T09:19:12.052Z,28.13
2017-08-20T09:20:12.069Z,28.06
2017-08-20T09:21:12.086Z,28.06
2017-08-20T09:22:12.103Z,27.94
2017-08-20T09:23:12.120Z,27.44
2017-08-20T09:24:12.141Z,26.63
2017-08-20T09:25:12.160Z,26.06
2017-08-20T09:26:12.172Z,25.63
2017-08-20T09:27:12.192Z,25.13
2017-08-20T09:28:12.205Z,24.75
2017-08-20T09:29:12.225Z,24.06
2017-08-20T09:30:12.240Z,23.44
2017-08-20T09:31:12.260Z,23.06
2017-08-20T09:32:12.274Z,22.94
2017-08-20T09:33:12.292Z,23.25
2017-08-20T09:34:12.309Z,23.94
2017-08-20T09:35:12.325Z,24.88
2017-08-20T09:36:12.341Z,25.75
2017-08-20T09:37:12.359Z,26.50
2017-08-20T09:38:12.376Z,27.25
2017-08-20T09:39:12.392Z,27.75
2017-08-20T09:40:12.408Z,27.88
2017-08-20T09:41:12.428Z,27.44
2017-08-20T09:42:12.443Z,27.06
2017-08-20T09:43:12.460Z,26.88
2017-08-20T09:44:12.477Z,27.00
2017-08-20T09:45:12.493Z,27.31
2017-08-20T09:46:12.510Z,27.88
2017-08-20T09:47:12.525Z,28.31
2017-08-20T09:48:12.545Z,28.75
2017-08-20T09:49:12.563Z,29.13
2017-08-20T09:50:12.578Z,29.50
2017-08-20T09:51:12.602Z,29.56
2017-08-20T09:52:12.614Z,29.25
2017-08-20T09:53:12.631Z,29.00
2017-08-20T09:54:12.645Z,28.81
2017-08-20T09:55:12.665Z,28.56
2017-08-20T09:56:12.682Z,28.00
2017-08-20T09:57:12.704Z,27.56
2017-08-20T09:58:12.715Z,27.25
2017-08-20T09:59:12.733Z,26.94
2017-08-20T10:00:12.750Z,26.63
2017-08-20T10:01:12.769Z,26.31
2017-08-20T10:02:12.791Z,26.13
2017-08-20T10:03:12.804Z,26.06
2017-08-20T10:04:12.817Z,26.06
2017-08-20T10:05:12.842Z,25.94
2017-08-20T10:06:12.856Z,25.63
2017-08-20T10:07:12.872Z,25.06
2017-08-20T10:08:12.889Z,24.56
2017-08-20T10:09:12.908Z,24.19
2017-08-20T10:10:12.927Z,24.00
2017-08-20T10:11:12.942Z,23.94
2017-08-20T10:12:12.959Z,24.19
2017-08-20T10:13:12.977Z,24.50
2017-08-20T10:14:12.994Z,24.81
2017-08-20T10:15:13.014Z,25.19
2017-08-20T10:16:13.028Z,25.25
2017-08-20T10:17:13.046Z,25.06
2017-08-20T10:18:13.064Z,25.19
2017-08-20T10:19:13.081Z,25.44
2017-08-20T10:20:13.095Z,25.88
2017-08-20T10:21:13.117Z,26.44
2017-08-20T10:22:13.131Z,26.88
2017-08-20T10:23:13.148Z,27.38
2017-08-20T10:24:13.169Z,28.00
2017-08-20T10:25:13.183Z,28.25
2017-08-20T10:26:13.196Z,28.38
2017-08-20T10:27:13.218Z,28.75
2017-08-20T10:28:13.232Z,29.19
2017-08-20T10:29:13.250Z,29.63
2017-08-20T10:30:13.266Z,30.06
2017-08-20T10:31:13.283Z,30.38
2017-08-20T10:32:13.300Z,30.25
2017-08-20T10:33:13.316Z,29.81
2017-08-20T10:34:13.335Z,29.31
2017-08-20T10:35:13.354Z,29.31
2017-08-20T10:36:13.371Z,29.56
2017-08-20T10:37:13.389Z,30.06
2017-08-20T10:38:13.406Z,30.38
2017-08-20T10:39:13.430Z,30.50
2017-08-20T10:40:13.444Z,30.56
2017-08-20T10:41:13.459Z,30.81
2017-08-20T10:42:13.474Z,31.06
2017-08-20T10:43:13.494Z,30.81
2017-08-20T10:44:13.510Z,30.75
2017-08-20T10:45:13.529Z,30.44
2017-08-20T10:46:13.547Z,30.19
2017-08-20T10:47:13.565Z,29.88
2017-08-20T10:48:13.586Z,30.00
2017-08-20T10:49:13.600Z,30.31
2017-08-20T10:50:13.614Z,30.63
2017-08-20T10:51:13.635Z,30.94
2017-08-20T10:52:13.651Z,31.19
2017-08-20T10:53:13.670Z,31.31
2017-08-20T10:54:13.686Z,31.31
2017-08-20T10:55:13.702Z,30.94
2017-08-20T10:56:13.719Z,30.31
2017-08-20T10:57:13.738Z,29.81
2017-08-20T10:58:13.755Z,29.25
2017-08-20T10:59:13.767Z,28.56
2017-08-20T11:00:13.790Z,28.13
2017-08-20T11:01:13.807Z,27.63
2017-08-20T11:02:13.824Z,27.13
2017-08-20T11:03:13.842Z,26.69
2017-08-20T11:04:13.857Z,26.31
2017-08-20T11:05:13.878Z,25.75
2017-08-20T11:06:13.894Z,25.44
2017-08-20T11:07:13.911Z,25.19
2017-08-20T11:08:13.926Z,25.00
2017-08-20T11:09:13.945Z,24.63
2017-08-20T11:10:13.965Z,24.00
2017-08-20T11:11:13.979Z,23.56
2017-08-20T11:12:13.994Z,23.25
2017-08-20T11:13:14.020Z,22.88
2017-08-20T11:14:14.032Z,22.69
2017-08-20T11:15:14.048Z,22.63
2017-08-20T11:16:14.064Z,22.69
2017-08-20T11:17:14.083Z,22.63
2017-08-20T11:18:14.120Z,22.25
2017-08-20T11:19:14.121Z,22.00
2017-08-20T11:20:14.129Z,22.00
2017-08-20T11:21:14.142Z,22.00
2017-08-20T11:22:16.007Z,22.00
2017-08-20T11:23:14.187Z,22.06
2017-08-20T11:24:14.211Z,22.19
2017-08-20T11:25:14.218Z,22.25
2017-08-20T11:26:14.234Z,22.25
2017-08-20T11:27:14.257Z,22.19
2017-08-20T11:28:14.268Z,22.19
2017-08-20T11:29:14.287Z,22.25
2017-08-20T11:30:14.303Z,22.31
2017-08-20T11:31:14.324Z,22.25
2017-08-20T11:32:14.334Z,21.94
2017-08-20T11:33:14.352Z,21.63
2017-08-20T11:34:14.369Z,21.63
2017-08-20T11:35:14.385Z,21.75
2017-08-20T11:36:14.399Z,21.94
2017-08-20T11:37:14.423Z,22.06
2017-08-20T11:38:14.431Z,22.25
2017-08-20T11:39:14.453Z,22.19
2017-08-20T11:40:14.468Z,22.25
2017-08-20T11:41:14.487Z,22.38
2017-08-20T11:42:14.503Z,22.44
2017-08-20T11:43:14.519Z,22.50
2017-08-20T11:44:14.536Z,22.56
2017-08-20T11:45:14.555Z,22.75
2017-08-20T11:46:14.571Z,22.88
2017-08-20T11:47:14.590Z,22.94
2017-08-20T11:48:14.604Z,22.88
2017-08-20T11:49:14.624Z,22.88
2017-08-20T11:50:14.638Z,22.81
2017-08-20T11:51:14.655Z,22.69
2017-08-20T11:52:14.673Z,22.56
2017-08-20T11:53:14.693Z,22.44
2017-08-20T11:54:14.707Z,22.31
2017-08-20T11:55:14.725Z,22.13
2017-08-20T11:56:14.742Z,21.88
2017-08-20T11:57:14.760Z,21.75
2017-08-20T11:58:14.777Z,21.69
2017-08-20T11:59:14.794Z,21.69
2017-08-20T12:00:14.810Z,21.63
2017-08-20T12:01:14.828Z,21.44
2017-08-20T12:02:14.847Z,21.31
2017-08-20T12:03:14.863Z,21.31
2017-08-20T12:04:14.888Z,21.25
2017-08-20T12:05:14.900Z,21.31
2017-08-20T12:06:14.914Z,21.31
2017-08-20T12:07:14.930Z,21.38
2017-08-20T12:08:14.947Z,21.44
2017-08-20T12:09:14.966Z,21.50
2017-08-20T12:10:14.985Z,21.50
2017-08-20T12:11:14.998Z,21.63
2017-08-20T12:12:15.016Z,21.69
2017-08-20T12:13:15.035Z,21.75
2017-08-20T12:14:15.051Z,21.69
2017-08-20T12:15:15.068Z,21.69
2017-08-20T12:16:15.088Z,21.69
2017-08-20T12:17:15.102Z,21.69
2017-08-20T12:18:15.122Z,21.63
2017-08-20T12:19:15.137Z,21.63
2017-08-20T12:20:15.152Z,21.63
2017-08-20T12:21:15.174Z,21.50
2017-08-20T12:22:15.190Z,21.31
2017-08-20T12:23:15.206Z,21.31
2017-08-20T12:24:15.223Z,21.31
2017-08-20T12:25:15.242Z,21.31
2017-08-20T12:26:15.260Z,21.25
2017-08-20T12:27:15.278Z,21.00
2017-08-20T12:28:15.291Z,20.81
2017-08-20T12:29:15.310Z,20.75
2017-08-20T12:30:15.327Z,20.88
2017-08-20T12:31:15.346Z,21.06
2017-08-20T12:32:15.362Z,21.25
2017-08-20T12:33:15.381Z,21.44
2017-08-20T12:34:15.400Z,21.63
2017-08-20T12:35:15.419Z,21.81
2017-08-20T12:36:15.433Z,22.00
2017-08-20T12:37:15.450Z,22.13
2017-08-20T12:38:15.470Z,22.13
2017-08-20T12:39:15.485Z,22.13
2017-08-20T12:40:15.503Z,22.19
2017-08-20T12:41:15.520Z,22.25
2017-08-20T12:42:15.537Z,22.31
2017-08-20T12:43:15.554Z,22.31
2017-08-20T12:44:15.572Z,22.25
2017-08-20T12:45:15.593Z,22.19
2017-08-20T12:46:15.609Z,22.06
2017-08-20T12:47:15.630Z,21.88
2017-08-20T12:48:15.642Z,21.69
2017-08-20T12:49:15.664Z,21.44
2017-08-20T12:50:15.679Z,21.19
2017-08-20T12:51:15.697Z,21.19
2017-08-20T12:52:15.721Z,21.06